• METAR

    LHBP Budapest Liszt Ferenc repülőtér METAR

    LHBP 220430Z 31004KT 9999 -RA FEW048 OVC076 11/06 Q1022 NOSIG

    QNH légnyomás:1022hpa
    Hőmérséklet/temperature: 11°C
    Harmatpont/Dew Point Temp: 6°C

    LHDC Debreceni repülőtér METAR

    LHDC 220415Z AUTO 12005KT 7000 NSC 07/06 Q1021 NOSIG

    QNH légnyomás:1021hpa
    Hőmérskélet/temperature: 7°C
    Harmatpont/Dew Point Temp: 6°C

    LHPR Győr-pér repülőtér METAR

    LHPR 220415Z AUTO 28007KT CAVOK 10/07 Q1023 NOSIG

    QNH légnyomás:1023hpa
    Hőmérskélet/temperature: 10°C
    Harmatpont/Dew Point Temp: 7°C

    lhsm Sármellék repülőtér METAR

    LHSM 220415Z AUTO 30005KT CAVOK 12/07 Q1024 NOSIG

    QNH légnyomás:1024hpa
    Hőmérskélet/temperature: 12°C
    Harmatpont/Dew Point Temp: 7°C

    lhpp Pécs-pogány repülőtér METAR

    LHPP 220415Z AUTO 29006KT CAVOK 10/06 Q1024

    QNH légnyomás:1024hpa
    Hőmérskélet/temperature: 10°C
    Harmatpont/Dew Point Temp: 6°C

    LHKE Kecskemét repülőtér METAR

    LHKE 220415Z 28006KT CAVOK 08/06 Q1022 NOSIG RMK BLU

    QNH légnyomás:1022hpa
    Hőmérskélet/temperature: 8°C
    Harmatpont/Dew Point Temp: 6°C

    LHSN Szolnok repülőtér METAR

    LHSN 220415Z 30006KT CAVOK 10/05 Q1021 NOSIG RMK BLU

    QNH légnyomás:1021hpa
    Hőmérskélet/temperature: 10°C
    Harmatpont/Dew Point Temp: 5°C

    LHUD szeged repülőtér METAR

    LHUD 032345Z 35004KT CAVOK 18/13 Q1019

    QNH légnyomás:1019hpa
    Hőmérskélet/temperature: 18°C
    Harmatpont/Dew Point Temp: 13°C

  • TÉRKÉPEK

    Felhőkép

    Széltérkép

    Hőtérkép

    radarkép

    map

    map

  • Műholdképek

    Magyarország műholdkép

    Europa műholdkép

    Europa szinoptikus térkép

  • ELTE ELŐREJELZÉS (2 NAP LHBP)

    2 napos légnyomás előrejelzés Budapest LHBP

    2 napos szél előrejelzés Budapest LHBP

    2 napos termik trigger előrejelzés Budapest LHBP

    2 napos felhőzet előrejelzés Budapest LHBP

    2 napos thermal index profile előrejelzés Budapest LHBP

    2 napos átlag emelés előrejelzés Budapest LHBP

    2 napos felhő alap előrejelzés Budapest LHBP

    2 napos hőmérséklet advekció előrejelzés Budapest LHBP

  • VILLÁMRADAR

  • ELŐREJELZÉS

  • WINDFINDER ELŐREJELZÉS

  • RIASZTÁS - VÉSZJELZÉS

Repülésmeteorológia, aktuális időjárási helyzet és előrejelzés

Repülésmeteorológia, várható időjárás jelentések, előrejelzések és riasztások. METAR, TAF adatok, aktuális időjárás helyzetek és térképek.

A meteorológia kialakulásában és fejlődésében kiemelt szerep jutott a repülésnek, illetve a repülés technikai fejlődésének. A repülésmeteorológia elsődlegesen a repülés biztonságát, másodlagosan a repülés gazdaságosságát hivatott szolgálni. Eleinte a katonai repülőgépeknek, később a polgári repülésnek, ma már a sportrepülő pilótáknak, és a mezőgazdasági pilótáknak is egyaránt szükségük van a naprakész meteorológiai információkra.

Repülésmeteorológia oldalunkon összegyűjtöttük a legnépszerűbb és legjobb időjárás oldalak hivatkozásait, hogy repülés előtt vagy akár közben minden fontos forrást egyszerűen és gyorsan megtalálj. Magyarország várható időjárása, légállapoti diagramok, termik előrejelzés, METAR adatok, vészjelzések és figyelmeztetések. A képernyő szélén közvetlenül pedig pozíciód aktuális időjárási paramétereit is megtalálod.

JOGI NYILATKOZAT

Az oldal használatával a látogató elfogadja az alábbi felhasználási feltételeket:

Az oldalon feltüntetett repülésmeteorológia információkat mindenki csak saját felelősségre használhatja. A feltüntetett külső forrásokból származó információk pontosságáért és tartalmáért, valamint az esetlegesen ebből adódó bármilyen káresemény kapcsán a FLYTIME.HU nem vállal felelősséget!